createdAt,value
2023-02-16T00:00:31.633Z,101358.38
2023-02-16T00:04:17.622Z,101358.39
2023-02-16T00:07:40.521Z,101356.68
2023-02-16T00:11:21.685Z,101351.21
2023-02-16T00:14:44.064Z,101349.30
2023-02-16T00:18:14.823Z,101344.85
2023-02-16T00:21:37.813Z,101343.48
2023-02-16T00:25:02.096Z,101332.00
2023-02-16T00:28:24.881Z,101335.75
2023-02-16T00:31:47.840Z,101328.89
2023-02-16T00:35:15.324Z,101334.36
2023-02-16T00:38:38.784Z,101334.52
2023-02-16T00:42:03.708Z,101331.95
2023-02-16T00:45:26.093Z,101329.19
2023-02-16T00:48:48.772Z,101322.48
2023-02-16T00:52:23.414Z,101314.79
2023-02-16T00:55:46.617Z,101310.84
2023-02-16T00:59:13.582Z,101308.60
2023-02-16T01:02:36.176Z,101301.77
2023-02-16T01:06:12.904Z,101301.40
2023-02-16T01:09:53.347Z,101296.95
2023-02-16T01:13:17.198Z,101293.70
2023-02-16T01:16:41.434Z,101294.35
2023-02-16T01:20:04.186Z,101284.95
2023-02-16T01:23:29.587Z,101283.61
2023-02-16T01:26:52.312Z,101282.58
2023-02-16T01:30:16.868Z,101277.45
2023-02-16T01:33:39.999Z,101276.60
2023-02-16T01:37:05.379Z,101261.73
2023-02-16T01:40:36.450Z,101247.73
2023-02-16T01:43:59.805Z,101247.92
2023-02-16T01:47:30.843Z,101240.92
2023-02-16T01:50:56.661Z,101234.26
2023-02-16T01:54:24.601Z,101237.17
2023-02-16T01:57:49.649Z,101237.33
2023-02-16T02:01:32.465Z,101244.52
2023-02-16T02:05:15.482Z,101245.71
2023-02-16T02:08:42.609Z,101243.80
2023-02-16T02:12:09.359Z,101241.21
2023-02-16T02:15:34.641Z,101243.09
2023-02-16T02:18:57.094Z,101238.79
2023-02-16T02:22:57.633Z,101235.02
2023-02-16T02:26:43.357Z,101219.45
2023-02-16T02:30:13.075Z,101211.23
2023-02-16T02:33:42.785Z,101205.38
2023-02-16T02:37:11.343Z,101206.23
2023-02-16T02:40:41.937Z,101207.91
2023-02-16T02:44:06.810Z,101204.33
2023-02-16T02:47:37.775Z,101199.69
2023-02-16T02:51:19.475Z,101199.35
2023-02-16T02:55:03.112Z,101183.10
2023-02-16T02:58:45.095Z,101182.60
2023-02-16T03:02:08.360Z,101180.02
2023-02-16T03:05:32.172Z,101179.17
2023-02-16T03:08:56.060Z,101179.20
2023-02-16T03:12:37.660Z,101192.54
2023-02-16T03:16:02.754Z,101192.02
2023-02-16T03:19:43.611Z,101194.58
2023-02-16T03:23:24.712Z,101188.30
2023-02-16T03:27:09.158Z,101173.43
2023-02-16T03:30:32.956Z,101169.17
2023-02-16T03:33:55.848Z,101171.77
2023-02-16T03:37:18.704Z,101172.44
2023-02-16T03:40:42.514Z,101172.46
2023-02-16T03:44:05.305Z,101176.92
2023-02-16T03:47:27.305Z,101175.89
2023-02-16T03:50:49.590Z,101174.84
2023-02-16T03:54:12.030Z,101175.69
2023-02-16T03:57:34.979Z,101179.95
2023-02-16T04:00:58.889Z,101177.04
2023-02-16T04:04:21.699Z,101174.45
2023-02-16T04:07:44.516Z,101177.69
2023-02-16T04:11:27.069Z,101174.94
2023-02-16T04:14:49.629Z,101175.09
2023-02-16T04:18:12.215Z,101167.20
2023-02-16T04:21:34.939Z,101171.10
2023-02-16T04:24:57.904Z,101175.86
2023-02-16T04:28:20.381Z,101173.95
2023-02-16T04:31:42.853Z,101167.61
2023-02-16T04:35:06.457Z,101163.66
2023-02-16T04:38:28.449Z,101165.03
2023-02-16T04:41:50.670Z,101161.95
2023-02-16T04:45:13.785Z,101162.98
2023-02-16T04:48:36.299Z,101153.08
2023-02-16T04:52:00.530Z,101151.71
2023-02-16T04:55:23.131Z,101145.77
2023-02-16T04:58:45.759Z,101141.02
2023-02-16T05:02:08.892Z,101136.11
2023-02-16T05:05:31.739Z,101128.45
2023-02-16T05:08:54.613Z,101125.90
2023-02-16T05:12:35.147Z,101123.35
2023-02-16T05:15:57.869Z,101127.63
2023-02-16T05:19:20.086Z,101122.52
2023-02-16T05:22:44.051Z,101119.42
2023-02-16T05:26:06.577Z,101118.42
2023-02-16T05:29:30.353Z,101113.48
2023-02-16T05:32:52.556Z,101117.21
2023-02-16T05:36:15.273Z,101117.72
2023-02-16T05:39:37.334Z,101119.94
2023-02-16T05:42:59.546Z,101122.14
2023-02-16T05:46:22.899Z,101124.18
2023-02-16T05:49:45.400Z,101124.14
2023-02-16T05:53:08.019Z,101125.99
2023-02-16T05:56:30.619Z,101131.93
2023-02-16T05:59:52.922Z,101131.21
2023-02-16T06:03:14.934Z,101124.52
2023-02-16T06:06:38.553Z,101123.98
2023-02-16T06:10:01.610Z,101120.05
2023-02-16T06:13:24.012Z,101123.46
2023-02-16T06:16:48.762Z,101120.53
2023-02-16T06:20:11.909Z,101122.91
2023-02-16T06:23:34.041Z,101128.71
2023-02-16T06:26:56.291Z,101124.45
2023-02-16T06:30:19.648Z,101124.61
2023-02-16T06:33:43.187Z,101125.85
2023-02-16T06:37:05.777Z,101129.95
2023-02-16T06:40:28.381Z,101126.92
2023-02-16T06:43:50.434Z,101124.40
2023-02-16T06:47:12.372Z,101117.77
2023-02-16T06:50:34.418Z,101109.95
2023-02-16T06:54:00.625Z,101108.44
2023-02-16T06:57:23.018Z,101099.76
2023-02-16T07:00:44.964Z,101096.86
2023-02-16T07:04:07.121Z,101095.02
2023-02-16T07:07:29.209Z,101090.73
2023-02-16T07:10:53.194Z,101091.27
2023-02-16T07:14:16.285Z,101093.30
2023-02-16T07:17:38.642Z,101094.52
2023-02-16T07:21:02.005Z,101087.84
2023-02-16T07:24:24.605Z,101091.07
2023-02-16T07:27:46.763Z,101095.70
2023-02-16T07:31:10.439Z,101097.04
2023-02-16T07:34:32.954Z,101101.83
2023-02-16T07:37:55.508Z,101100.09
2023-02-16T07:41:17.486Z,101098.73
2023-02-16T07:44:39.745Z,101085.58
2023-02-16T07:48:02.208Z,101097.88
2023-02-16T07:51:25.518Z,101093.64
2023-02-16T07:54:47.754Z,101089.87
2023-02-16T07:58:09.960Z,101090.38
2023-02-16T08:01:32.145Z,101084.92
2023-02-16T08:04:54.694Z,101092.44
2023-02-16T08:08:19.518Z,101093.83
2023-02-16T08:11:42.881Z,101096.05
2023-02-16T08:15:05.374Z,101099.81
2023-02-16T08:18:28.403Z,101102.39
2023-02-16T08:21:50.916Z,101105.97
2023-02-16T08:25:15.445Z,101104.77
2023-02-16T08:28:38.142Z,101103.39
2023-02-16T08:32:01.349Z,101095.85
2023-02-16T08:35:23.724Z,101101.67
2023-02-16T08:38:50.594Z,101112.78
2023-02-16T08:42:13.424Z,101108.30
2023-02-16T08:45:35.936Z,101113.95
2023-02-16T08:48:59.737Z,101112.39
2023-02-16T08:52:21.895Z,101108.95
2023-02-16T08:55:51.217Z,101106.02
2023-02-16T08:59:14.566Z,101102.23
2023-02-16T09:02:37.580Z,101106.50
2023-02-16T09:06:02.731Z,101103.92
2023-02-16T09:09:26.581Z,101096.04
2023-02-16T09:12:49.549Z,101102.73
2023-02-16T09:16:15.371Z,101113.52
2023-02-16T09:19:38.097Z,101117.11
2023-02-16T09:23:00.344Z,101115.39
2023-02-16T09:26:24.061Z,101115.58
2023-02-16T09:29:49.401Z,101112.96
2023-02-16T09:33:12.513Z,101103.86
2023-02-16T09:36:36.537Z,101104.30
2023-02-16T09:39:58.579Z,101107.38
2023-02-16T09:43:28.704Z,101106.13
2023-02-16T09:46:52.143Z,101106.41
2023-02-16T09:50:17.081Z,101109.27
2023-02-16T09:53:40.961Z,101104.93
2023-02-16T09:57:08.186Z,101105.15
2023-02-16T10:00:39.803Z,101101.02
2023-02-16T10:04:11.653Z,101098.13
2023-02-16T10:07:40.660Z,101095.59
2023-02-16T10:11:27.477Z,101094.80
2023-02-16T10:14:51.621Z,101084.92
2023-02-16T10:18:21.676Z,101083.98
2023-02-16T10:21:46.316Z,101077.61
2023-02-16T10:25:12.834Z,101080.61
2023-02-16T10:28:40.909Z,101081.70
2023-02-16T10:32:11.524Z,101075.77
2023-02-16T10:35:42.383Z,101082.54
2023-02-16T10:39:08.002Z,101084.38
2023-02-16T10:42:34.393Z,101080.81
2023-02-16T10:45:59.142Z,101076.74
2023-02-16T10:49:21.630Z,101072.37
2023-02-16T10:52:44.181Z,101064.35
2023-02-16T10:56:21.499Z,101064.67
2023-02-16T10:59:44.823Z,101065.11
2023-02-16T11:03:10.993Z,101065.45
2023-02-16T11:06:36.443Z,101058.32
2023-02-16T11:10:01.162Z,101060.42
2023-02-16T11:13:26.947Z,101051.85
2023-02-16T11:16:49.549Z,101050.34
2023-02-16T11:20:26.607Z,101044.45
2023-02-16T11:23:58.098Z,101041.64
2023-02-16T11:27:21.802Z,101041.90
2023-02-16T11:30:44.779Z,101034.91
2023-02-16T11:34:08.516Z,101032.34
2023-02-16T11:37:32.926Z,101032.74
2023-02-16T11:40:55.929Z,101035.23
2023-02-16T11:44:24.520Z,101037.98
2023-02-16T11:47:52.419Z,101035.45
2023-02-16T11:51:28.515Z,101031.88
2023-02-16T11:54:52.386Z,101035.45
2023-02-16T11:58:16.881Z,101029.73
2023-02-16T12:01:44.452Z,101028.65
2023-02-16T12:05:21.322Z,101023.47
2023-02-16T12:08:58.634Z,101016.96
2023-02-16T12:12:31.669Z,101014.88
2023-02-16T12:15:57.310Z,101007.52
2023-02-16T12:19:24.678Z,100999.71
2023-02-16T12:22:49.588Z,100993.84
2023-02-16T12:26:31.083Z,100989.30
2023-02-16T12:29:59.440Z,100980.48
2023-02-16T12:33:33.388Z,100980.94
2023-02-16T12:37:01.173Z,100975.20
2023-02-16T12:40:30.638Z,100968.73
2023-02-16T12:43:54.513Z,100966.02
2023-02-16T12:47:22.549Z,100964.80
2023-02-16T12:50:46.832Z,100968.80
2023-02-16T12:54:13.839Z,100962.19
2023-02-16T12:57:36.593Z,100956.66
2023-02-16T13:01:01.944Z,100952.25
2023-02-16T13:04:31.173Z,100946.59
2023-02-16T13:07:56.335Z,100952.14
2023-02-16T13:11:20.663Z,100951.38
2023-02-16T13:14:44.123Z,100952.19
2023-02-16T13:18:11.882Z,100948.98
2023-02-16T13:21:51.803Z,100953.83
2023-02-16T13:25:28.726Z,100952.70
2023-02-16T13:29:03.566Z,100954.73
2023-02-16T13:32:44.460Z,100949.52
2023-02-16T13:36:15.487Z,100945.43
2023-02-16T13:39:42.513Z,100943.08
2023-02-16T13:43:12.833Z,100948.31
2023-02-16T13:46:38.982Z,100950.84
2023-02-16T13:50:03.027Z,100948.25
2023-02-16T13:53:27.639Z,100950.45
2023-02-16T13:56:51.142Z,100955.96
2023-02-16T14:00:29.160Z,100958.92
2023-02-16T14:03:51.774Z,100959.09
2023-02-16T14:07:32.538Z,100959.84
2023-02-16T14:11:09.210Z,100956.91
2023-02-16T14:14:33.596Z,100949.73
2023-02-16T14:17:56.094Z,100953.75
2023-02-16T14:21:32.097Z,100947.48
2023-02-16T14:24:56.246Z,100947.28
2023-02-16T14:28:51.515Z,100947.58
2023-02-16T14:32:23.884Z,100946.67
2023-02-16T14:35:48.287Z,100945.85
2023-02-16T14:39:12.404Z,100944.39
2023-02-16T14:42:35.941Z,100940.88
2023-02-16T14:46:16.646Z,100945.10
2023-02-16T14:49:54.707Z,100941.34
2023-02-16T14:53:35.275Z,100939.66
2023-02-16T14:57:02.227Z,100931.38
2023-02-16T15:00:29.140Z,100932.61
2023-02-16T15:03:54.103Z,100930.95
2023-02-16T15:07:17.912Z,100927.43
2023-02-16T15:10:41.353Z,100922.58
2023-02-16T15:14:08.558Z,100919.77
2023-02-16T15:17:34.001Z,100913.02
2023-02-16T15:20:57.892Z,100912.56
2023-02-16T15:24:22.470Z,100906.23
2023-02-16T15:27:53.370Z,100906.14
2023-02-16T15:31:18.288Z,100906.81
2023-02-16T15:34:41.076Z,100907.17
2023-02-16T15:38:20.305Z,100904.15
2023-02-16T15:41:45.238Z,100897.58
2023-02-16T15:45:24.913Z,100898.05
2023-02-16T15:48:49.671Z,100894.80
2023-02-16T15:52:14.832Z,100894.29
2023-02-16T15:55:45.025Z,100893.62
2023-02-16T15:59:34.200Z,100897.92
2023-02-16T16:02:58.449Z,100901.02
2023-02-16T16:06:21.046Z,100904.79
2023-02-16T16:09:45.372Z,100906.12
2023-02-16T16:13:12.077Z,100903.27
2023-02-16T16:16:35.865Z,100907.68
2023-02-16T16:20:17.204Z,100905.52
2023-02-16T16:23:42.241Z,100907.13
2023-02-16T16:27:07.917Z,100905.98
2023-02-16T16:30:31.717Z,100912.25
2023-02-16T16:33:57.354Z,100909.23
2023-02-16T16:37:24.598Z,100910.02
2023-02-16T16:40:50.404Z,100914.06
2023-02-16T16:44:29.044Z,100911.45
2023-02-16T16:47:52.536Z,100906.75
2023-02-16T16:51:15.740Z,100903.39
2023-02-16T16:54:40.180Z,100900.98
2023-02-16T16:58:05.904Z,100903.08
2023-02-16T17:01:29.598Z,100904.11
2023-02-16T17:04:52.266Z,100904.45
2023-02-16T17:08:14.360Z,100905.28
2023-02-16T17:11:37.917Z,100906.16
2023-02-16T17:15:01.863Z,100903.71
2023-02-16T17:18:24.441Z,100902.34
2023-02-16T17:23:53.835Z,100907.23
2023-02-16T17:27:23.511Z,100910.48
2023-02-16T17:30:53.438Z,100907.89
2023-02-16T17:34:22.127Z,100914.83
2023-02-16T17:37:49.223Z,100912.66
2023-02-16T17:41:23.301Z,100916.13
2023-02-16T17:44:51.088Z,100913.14
2023-02-16T17:48:21.217Z,100909.87
2023-02-16T17:51:48.334Z,100906.11
2023-02-16T17:55:17.800Z,100902.46
2023-02-16T17:58:45.304Z,100907.55
2023-02-16T18:02:14.689Z,100907.64
2023-02-16T18:05:42.669Z,100909.20
2023-02-16T18:09:11.584Z,100906.64
2023-02-16T18:12:39.594Z,100907.68
2023-02-16T18:16:08.768Z,100908.72
2023-02-16T18:19:36.208Z,100909.71
2023-02-16T18:23:03.133Z,100913.64
2023-02-16T18:26:33.535Z,100913.79
2023-02-16T18:30:00.778Z,100911.55
2023-02-16T18:33:29.146Z,100909.36
2023-02-16T18:36:56.273Z,100911.17
2023-02-16T18:40:23.861Z,100902.31
2023-02-16T18:43:51.726Z,100900.52
2023-02-16T18:47:20.302Z,100901.67
2023-02-16T18:50:48.879Z,100906.95
2023-02-16T18:54:17.120Z,100902.88
2023-02-16T18:57:44.479Z,100902.95
2023-02-16T19:01:23.678Z,100901.95
2023-02-16T19:04:50.461Z,100899.02
2023-02-16T19:08:22.490Z,100894.55
2023-02-16T19:11:50.859Z,100892.45
2023-02-16T19:15:21.193Z,100891.16
2023-02-16T19:18:48.486Z,100890.91
2023-02-16T19:22:19.260Z,100892.20
2023-02-16T19:25:47.621Z,100886.13
2023-02-16T19:29:15.962Z,100883.27
2023-02-16T19:32:49.776Z,100877.08
2023-02-16T19:36:27.097Z,100879.04
2023-02-16T19:39:57.427Z,100876.50
2023-02-16T19:43:25.085Z,100879.45
2023-02-16T19:46:54.364Z,100880.68
2023-02-16T19:50:22.099Z,100869.39
2023-02-16T19:53:51.723Z,100874.48
2023-02-16T19:57:22.571Z,100870.23
2023-02-16T20:00:50.426Z,100863.64
2023-02-16T20:04:20.571Z,100868.75
2023-02-16T20:07:47.816Z,100868.86
2023-02-16T20:11:19.331Z,100870.48
2023-02-16T20:14:50.081Z,100867.98
2023-02-16T20:18:19.907Z,100867.88
2023-02-16T20:22:00.429Z,100861.54
2023-02-16T20:25:29.781Z,100860.52
2023-02-16T20:28:59.718Z,100861.77
2023-02-16T20:32:31.230Z,100856.84
2023-02-16T20:35:58.533Z,100864.39
2023-02-16T20:39:27.755Z,100865.96
2023-02-16T20:42:54.560Z,100862.91
2023-02-16T20:46:26.581Z,100865.11
2023-02-16T20:50:00.466Z,100870.27
2023-02-16T20:53:30.242Z,100869.14
2023-02-16T20:56:59.928Z,100872.12
2023-02-16T21:00:30.260Z,100874.23
2023-02-16T21:03:59.584Z,100872.85
2023-02-16T21:07:26.636Z,100871.15
2023-02-16T21:10:54.457Z,100869.61
2023-02-16T21:14:21.528Z,100871.14
2023-02-16T21:17:49.491Z,100870.45
2023-02-16T21:21:17.481Z,100872.15
2023-02-16T21:24:44.528Z,100868.09
2023-02-16T21:28:11.731Z,100866.08
2023-02-16T21:31:39.576Z,100866.27
2023-02-16T21:35:07.866Z,100869.56
2023-02-16T21:38:35.824Z,100870.09
2023-02-16T21:42:03.705Z,100866.77
2023-02-16T21:45:32.845Z,100865.96
2023-02-16T21:49:01.112Z,100864.38
2023-02-16T21:52:29.313Z,100860.59
2023-02-16T21:56:13.428Z,100862.32
2023-02-16T21:59:42.034Z,100862.67
2023-02-16T22:03:14.344Z,100858.25
2023-02-16T22:06:46.398Z,100857.43
2023-02-16T22:10:13.758Z,100855.13
2023-02-16T22:13:48.341Z,100852.64
2023-02-16T22:17:16.662Z,100852.34
2023-02-16T22:20:44.310Z,100847.88
2023-02-16T22:24:15.114Z,100844.59
2023-02-16T22:27:42.786Z,100839.90
2023-02-16T22:31:10.732Z,100843.38
2023-02-16T22:34:37.862Z,100836.02
2023-02-16T22:38:05.428Z,100832.79
2023-02-16T22:41:32.414Z,100830.74
2023-02-16T22:45:01.077Z,100829.67
2023-02-16T22:48:28.298Z,100826.40
2023-02-16T22:51:55.655Z,100826.66
2023-02-16T22:55:22.675Z,100826.42
2023-02-16T22:58:49.891Z,100822.61
2023-02-16T23:02:16.673Z,100819.67
2023-02-16T23:05:43.601Z,100813.46
2023-02-16T23:09:16.055Z,100813.23
2023-02-16T23:12:42.674Z,100809.42
2023-02-16T23:16:13.475Z,100807.69
2023-02-16T23:19:40.645Z,100801.46
2023-02-16T23:23:07.703Z,100797.82
2023-02-16T23:26:35.461Z,100800.62
2023-02-16T23:30:02.652Z,100798.94
2023-02-16T23:33:30.459Z,100796.02
2023-02-16T23:37:00.429Z,100797.23
2023-02-16T23:40:27.831Z,100797.81
2023-02-16T23:43:55.753Z,100799.52
2023-02-16T23:47:22.890Z,100795.23
2023-02-16T23:50:54.458Z,100793.78
2023-02-16T23:54:21.193Z,100794.57
2023-02-16T23:57:48.807Z,100795.55
